sensor_id;sensor_type;location;lat;lon;timestamp;P1;durP1;ratioP1;P2;durP2;ratioP2
68256;SDS011;55069;51.568;4.656;2022-12-18T00:00:40;110.03;;;26.77;;
68256;SDS011;55069;51.568;4.656;2022-12-18T00:03:06;108.47;;;28.10;;
68256;SDS011;55069;51.568;4.656;2022-12-18T00:05:32;90.00;;;26.70;;
68256;SDS011;55069;51.568;4.656;2022-12-18T00:07:57;103.60;;;28.67;;
68256;SDS011;55069;51.568;4.656;2022-12-18T00:10:23;92.65;;;25.85;;
68256;SDS011;55069;51.568;4.656;2022-12-18T00:12:48;99.07;;;26.80;;
68256;SDS011;55069;51.568;4.656;2022-12-18T00:15:13;101.33;;;25.73;;
68256;SDS011;55069;51.568;4.656;2022-12-18T00:17:39;96.30;;;26.40;;
68256;SDS011;55069;51.568;4.656;2022-12-18T00:20:04;111.17;;;28.57;;
68256;SDS011;55069;51.568;4.656;2022-12-18T00:22:30;107.25;;;28.27;;
68256;SDS011;55069;51.568;4.656;2022-12-18T00:24:56;98.47;;;27.07;;
68256;SDS011;55069;51.568;4.656;2022-12-18T00:27:21;101.07;;;27.55;;
68256;SDS011;55069;51.568;4.656;2022-12-18T00:29:47;88.38;;;24.85;;
68256;SDS011;55069;51.568;4.656;2022-12-18T00:32:13;91.27;;;26.80;;
68256;SDS011;55069;51.568;4.656;2022-12-18T00:34:39;94.05;;;26.33;;
68256;SDS011;55069;51.568;4.656;2022-12-18T00:37:04;105.63;;;27.33;;
68256;SDS011;55069;51.568;4.656;2022-12-18T00:39:30;89.80;;;26.03;;
68256;SDS011;55069;51.568;4.656;2022-12-18T00:41:55;91.63;;;24.00;;
68256;SDS011;55069;51.568;4.656;2022-12-18T00:44:40;96.15;;;25.73;;
68256;SDS011;55069;51.568;4.656;2022-12-18T00:47:05;81.70;;;24.45;;
68256;SDS011;55069;51.568;4.656;2022-12-18T00:49:32;86.30;;;23.33;;
68256;SDS011;55069;51.568;4.656;2022-12-18T00:51:57;82.68;;;24.85;;
68256;SDS011;55069;51.568;4.656;2022-12-18T00:54:23;76.50;;;23.05;;
68256;SDS011;55069;51.568;4.656;2022-12-18T00:56:48;80.43;;;22.13;;
68256;SDS011;55069;51.568;4.656;2022-12-18T00:59:14;75.97;;;22.55;;
68256;SDS011;55069;51.568;4.656;2022-12-18T01:01:42;85.23;;;22.20;;
68256;SDS011;55069;51.568;4.656;2022-12-18T01:04:07;77.88;;;22.83;;
68256;SDS011;55069;51.568;4.656;2022-12-18T01:06:33;76.70;;;22.47;;
68256;SDS011;55069;51.568;4.656;2022-12-18T01:08:58;79.18;;;23.20;;
68256;SDS011;55069;51.568;4.656;2022-12-18T01:11:24;67.68;;;22.73;;
68256;SDS011;55069;51.568;4.656;2022-12-18T01:13:51;68.10;;;21.07;;
68256;SDS011;55069;51.568;4.656;2022-12-18T01:16:17;75.47;;;22.27;;
68256;SDS011;55069;51.568;4.656;2022-12-18T01:18:43;76.30;;;22.98;;
68256;SDS011;55069;51.568;4.656;2022-12-18T01:21:10;63.17;;;19.90;;
68256;SDS011;55069;51.568;4.656;2022-12-18T01:23:37;61.55;;;19.40;;
68256;SDS011;55069;51.568;4.656;2022-12-18T01:26:07;58.10;;;20.80;;
68256;SDS011;55069;51.568;4.656;2022-12-18T01:28:34;72.80;;;22.40;;
68256;SDS011;55069;51.568;4.656;2022-12-18T01:31:20;63.70;;;20.38;;
68256;SDS011;55069;51.568;4.656;2022-12-18T01:33:52;53.00;;;17.80;;
68256;SDS011;55069;51.568;4.656;2022-12-18T01:36:22;62.85;;;20.35;;
68256;SDS011;55069;51.568;4.656;2022-12-18T01:38:48;61.67;;;19.67;;
68256;SDS011;55069;51.568;4.656;2022-12-18T01:41:15;68.83;;;21.07;;
68256;SDS011;55069;51.568;4.656;2022-12-18T01:46:10;60.15;;;19.60;;
68256;SDS011;55069;51.568;4.656;2022-12-18T01:48:36;63.47;;;19.77;;
68256;SDS011;55069;51.568;4.656;2022-12-18T01:51:04;62.13;;;19.38;;
68256;SDS011;55069;51.568;4.656;2022-12-18T01:53:31;71.88;;;21.80;;
68256;SDS011;55069;51.568;4.656;2022-12-18T01:55:57;54.17;;;18.10;;
68256;SDS011;55069;51.568;4.656;2022-12-18T01:58:27;58.47;;;19.77;;
68256;SDS011;55069;51.568;4.656;2022-12-18T02:01:00;62.20;;;18.85;;
68256;SDS011;55069;51.568;4.656;2022-12-18T02:03:26;53.10;;;18.87;;
68256;SDS011;55069;51.568;4.656;2022-12-18T02:08:22;60.42;;;19.95;;
68256;SDS011;55069;51.568;4.656;2022-12-18T02:13:41;56.10;;;18.13;;
68256;SDS011;55069;51.568;4.656;2022-12-18T02:16:28;53.85;;;17.60;;
68256;SDS011;55069;51.568;4.656;2022-12-18T02:27:13;54.80;;;18.23;;
68256;SDS011;55069;51.568;4.656;2022-12-18T02:29:42;47.08;;;16.60;;
68256;SDS011;55069;51.568;4.656;2022-12-18T02:32:14;49.75;;;16.95;;
68256;SDS011;55069;51.568;4.656;2022-12-18T02:34:44;51.33;;;18.40;;
68256;SDS011;55069;51.568;4.656;2022-12-18T02:37:14;54.13;;;17.43;;
68256;SDS011;55069;51.568;4.656;2022-12-18T02:39:43;55.28;;;18.00;;
68256;SDS011;55069;51.568;4.656;2022-12-18T02:42:12;52.63;;;16.58;;
68256;SDS011;55069;51.568;4.656;2022-12-18T02:44:46;51.43;;;17.40;;
68256;SDS011;55069;51.568;4.656;2022-12-18T02:47:17;54.42;;;16.67;;
68256;SDS011;55069;51.568;4.656;2022-12-18T02:55:58;50.30;;;17.02;;
68256;SDS011;55069;51.568;4.656;2022-12-18T03:03:55;58.97;;;17.07;;
68256;SDS011;55069;51.568;4.656;2022-12-18T03:06:28;60.45;;;17.25;;
68256;SDS011;55069;51.568;4.656;2022-12-18T03:09:01;46.47;;;16.77;;
68256;SDS011;55069;51.568;4.656;2022-12-18T03:11:32;57.60;;;17.50;;
68256;SDS011;55069;51.568;4.656;2022-12-18T03:14:19;50.70;;;17.38;;
68256;SDS011;55069;51.568;4.656;2022-12-18T03:16:48;56.97;;;17.52;;
68256;SDS011;55069;51.568;4.656;2022-12-18T03:19:16;47.17;;;16.95;;
68256;SDS011;55069;51.568;4.656;2022-12-18T03:21:52;50.97;;;17.10;;
68256;SDS011;55069;51.568;4.656;2022-12-18T03:24:22;51.47;;;17.85;;
68256;SDS011;55069;51.568;4.656;2022-12-18T03:26:54;52.80;;;17.20;;
68256;SDS011;55069;51.568;4.656;2022-12-18T03:29:25;48.60;;;16.23;;
68256;SDS011;55069;51.568;4.656;2022-12-18T03:32:32;40.05;;;16.10;;
68256;SDS011;55069;51.568;4.656;2022-12-18T03:35:02;53.60;;;17.20;;
68256;SDS011;55069;51.568;4.656;2022-12-18T03:37:34;46.27;;;15.40;;
68256;SDS011;55069;51.568;4.656;2022-12-18T03:40:00;54.15;;;17.10;;
68256;SDS011;55069;51.568;4.656;2022-12-18T03:42:37;47.55;;;16.25;;
68256;SDS011;55069;51.568;4.656;2022-12-18T03:50:57;49.67;;;17.13;;
68256;SDS011;55069;51.568;4.656;2022-12-18T03:55:53;51.67;;;16.03;;
68256;SDS011;55069;51.568;4.656;2022-12-18T03:58:21;50.90;;;16.60;;
68256;SDS011;55069;51.568;4.656;2022-12-18T04:00:58;39.92;;;14.95;;
68256;SDS011;55069;51.568;4.656;2022-12-18T04:03:27;49.77;;;16.80;;
68256;SDS011;55069;51.568;4.656;2022-12-18T04:05:55;48.35;;;15.95;;
68256;SDS011;55069;51.568;4.656;2022-12-18T04:08:22;49.53;;;16.00;;
68256;SDS011;55069;51.568;4.656;2022-12-18T04:10:59;49.92;;;15.30;;
68256;SDS011;55069;51.568;4.656;2022-12-18T04:13:29;40.53;;;15.00;;
68256;SDS011;55069;51.568;4.656;2022-12-18T04:15:59;41.85;;;15.05;;
68256;SDS011;55069;51.568;4.656;2022-12-18T04:18:26;47.80;;;15.60;;
68256;SDS011;55069;51.568;4.656;2022-12-18T04:20:52;43.77;;;14.43;;
68256;SDS011;55069;51.568;4.656;2022-12-18T04:23:18;41.90;;;16.25;;
68256;SDS011;55069;51.568;4.656;2022-12-18T04:25:44;46.07;;;14.40;;
68256;SDS011;55069;51.568;4.656;2022-12-18T04:28:16;41.17;;;14.25;;
68256;SDS011;55069;51.568;4.656;2022-12-18T04:30:41;36.83;;;14.23;;
68256;SDS011;55069;51.568;4.656;2022-12-18T04:33:08;53.67;;;14.50;;
68256;SDS011;55069;51.568;4.656;2022-12-18T04:35:38;39.75;;;15.10;;
68256;SDS011;55069;51.568;4.656;2022-12-18T04:38:05;41.08;;;14.05;;
68256;SDS011;55069;51.568;4.656;2022-12-18T04:40:32;40.65;;;15.73;;
68256;SDS011;55069;51.568;4.656;2022-12-18T04:42:57;42.17;;;13.90;;
68256;SDS011;55069;51.568;4.656;2022-12-18T04:45:23;44.13;;;15.07;;
68256;SDS011;55069;51.568;4.656;2022-12-18T04:47:48;40.80;;;14.52;;
68256;SDS011;55069;51.568;4.656;2022-12-18T04:50:14;39.67;;;13.23;;
68256;SDS011;55069;51.568;4.656;2022-12-18T04:52:39;38.07;;;15.17;;
68256;SDS011;55069;51.568;4.656;2022-12-18T04:55:05;32.37;;;11.93;;
68256;SDS011;55069;51.568;4.656;2022-12-18T04:57:30;37.33;;;13.65;;
68256;SDS011;55069;51.568;4.656;2022-12-18T04:59:56;46.73;;;15.37;;
68256;SDS011;55069;51.568;4.656;2022-12-18T05:02:21;33.37;;;12.13;;
68256;SDS011;55069;51.568;4.656;2022-12-18T05:04:47;34.78;;;13.15;;
68256;SDS011;55069;51.568;4.656;2022-12-18T05:07:13;40.33;;;13.97;;
68256;SDS011;55069;51.568;4.656;2022-12-18T05:09:38;38.03;;;12.57;;
68256;SDS011;55069;51.568;4.656;2022-12-18T05:12:04;46.73;;;14.17;;
68256;SDS011;55069;51.568;4.656;2022-12-18T05:14:29;34.67;;;12.30;;
68256;SDS011;55069;51.568;4.656;2022-12-18T05:16:55;38.13;;;12.83;;
68256;SDS011;55069;51.568;4.656;2022-12-18T05:19:20;39.47;;;12.97;;
68256;SDS011;55069;51.568;4.656;2022-12-18T05:21:46;32.23;;;13.70;;
68256;SDS011;55069;51.568;4.656;2022-12-18T05:24:11;36.10;;;13.38;;
68256;SDS011;55069;51.568;4.656;2022-12-18T05:26:37;30.97;;;11.90;;
68256;SDS011;55069;51.568;4.656;2022-12-18T05:29:02;29.83;;;11.43;;
68256;SDS011;55069;51.568;4.656;2022-12-18T05:31:28;30.00;;;13.32;;
68256;SDS011;55069;51.568;4.656;2022-12-18T05:33:54;34.63;;;12.87;;
68256;SDS011;55069;51.568;4.656;2022-12-18T05:36:19;37.95;;;14.05;;
68256;SDS011;55069;51.568;4.656;2022-12-18T05:38:45;32.43;;;12.27;;
68256;SDS011;55069;51.568;4.656;2022-12-18T05:41:10;33.70;;;12.70;;
68256;SDS011;55069;51.568;4.656;2022-12-18T05:43:37;32.53;;;12.37;;
68256;SDS011;55069;51.568;4.656;2022-12-18T05:46:07;35.67;;;12.43;;
68256;SDS011;55069;51.568;4.656;2022-12-18T05:48:36;35.80;;;12.90;;
68256;SDS011;55069;51.568;4.656;2022-12-18T05:51:12;36.77;;;12.77;;
68256;SDS011;55069;51.568;4.656;2022-12-18T05:53:40;37.25;;;11.85;;
68256;SDS011;55069;51.568;4.656;2022-12-18T05:56:08;32.47;;;12.20;;
68256;SDS011;55069;51.568;4.656;2022-12-18T05:58:35;33.47;;;12.05;;
68256;SDS011;55069;51.568;4.656;2022-12-18T06:01:09;28.77;;;11.30;;
68256;SDS011;55069;51.568;4.656;2022-12-18T06:03:36;29.95;;;11.48;;
68256;SDS011;55069;51.568;4.656;2022-12-18T06:06:02;32.55;;;12.70;;
68256;SDS011;55069;51.568;4.656;2022-12-18T06:08:28;25.27;;;11.20;;
68256;SDS011;55069;51.568;4.656;2022-12-18T06:10:54;35.63;;;11.98;;
68256;SDS011;55069;51.568;4.656;2022-12-18T06:13:19;29.10;;;11.07;;
68256;SDS011;55069;51.568;4.656;2022-12-18T06:15:46;32.75;;;11.75;;
68256;SDS011;55069;51.568;4.656;2022-12-18T06:18:11;35.93;;;12.17;;
68256;SDS011;55069;51.568;4.656;2022-12-18T06:20:37;29.90;;;11.93;;
68256;SDS011;55069;51.568;4.656;2022-12-18T06:23:05;34.30;;;12.33;;
68256;SDS011;55069;51.568;4.656;2022-12-18T06:25:31;33.13;;;11.70;;
68256;SDS011;55069;51.568;4.656;2022-12-18T06:27:57;31.90;;;11.63;;
68256;SDS011;55069;51.568;4.656;2022-12-18T06:30:22;32.57;;;12.37;;
68256;SDS011;55069;51.568;4.656;2022-12-18T06:32:48;30.10;;;12.20;;
68256;SDS011;55069;51.568;4.656;2022-12-18T06:35:14;34.63;;;11.30;;
68256;SDS011;55069;51.568;4.656;2022-12-18T06:37:40;31.53;;;12.33;;
68256;SDS011;55069;51.568;4.656;2022-12-18T06:40:06;31.60;;;11.90;;
68256;SDS011;55069;51.568;4.656;2022-12-18T06:42:32;27.58;;;11.82;;
68256;SDS011;55069;51.568;4.656;2022-12-18T06:44:57;28.53;;;12.50;;
68256;SDS011;55069;51.568;4.656;2022-12-18T06:47:23;31.67;;;11.30;;
68256;SDS011;55069;51.568;4.656;2022-12-18T06:49:48;26.60;;;11.30;;
68256;SDS011;55069;51.568;4.656;2022-12-18T06:52:14;28.73;;;12.43;;
68256;SDS011;55069;51.568;4.656;2022-12-18T06:54:42;28.45;;;11.90;;
68256;SDS011;55069;51.568;4.656;2022-12-18T06:57:08;31.00;;;12.13;;
68256;SDS011;55069;51.568;4.656;2022-12-18T06:59:33;26.03;;;10.20;;
68256;SDS011;55069;51.568;4.656;2022-12-18T07:01:59;29.67;;;12.23;;
68256;SDS011;55069;51.568;4.656;2022-12-18T07:04:30;26.48;;;10.60;;
68256;SDS011;55069;51.568;4.656;2022-12-18T07:06:56;22.05;;;10.45;;
68256;SDS011;55069;51.568;4.656;2022-12-18T07:09:22;31.95;;;10.93;;
68256;SDS011;55069;51.568;4.656;2022-12-18T07:11:48;28.40;;;10.33;;
68256;SDS011;55069;51.568;4.656;2022-12-18T07:14:13;28.52;;;10.55;;
68256;SDS011;55069;51.568;4.656;2022-12-18T07:16:39;26.43;;;9.63;;
68256;SDS011;55069;51.568;4.656;2022-12-18T07:19:04;30.03;;;11.13;;
68256;SDS011;55069;51.568;4.656;2022-12-18T07:21:29;22.37;;;10.70;;
68256;SDS011;55069;51.568;4.656;2022-12-18T07:23:55;28.80;;;11.03;;
68256;SDS011;55069;51.568;4.656;2022-12-18T07:26:21;24.05;;;10.63;;
68256;SDS011;55069;51.568;4.656;2022-12-18T07:28:48;28.65;;;11.55;;
68256;SDS011;55069;51.568;4.656;2022-12-18T07:31:15;28.33;;;12.67;;
68256;SDS011;55069;51.568;4.656;2022-12-18T07:33:43;28.00;;;11.10;;
68256;SDS011;55069;51.568;4.656;2022-12-18T07:36:09;24.13;;;11.43;;
68256;SDS011;55069;51.568;4.656;2022-12-18T07:38:35;22.77;;;10.80;;
68256;SDS011;55069;51.568;4.656;2022-12-18T07:41:02;24.85;;;10.93;;
68256;SDS011;55069;51.568;4.656;2022-12-18T07:43:34;23.38;;;10.25;;
68256;SDS011;55069;51.568;4.656;2022-12-18T07:46:00;26.30;;;9.83;;
68256;SDS011;55069;51.568;4.656;2022-12-18T07:48:27;31.08;;;11.38;;
68256;SDS011;55069;51.568;4.656;2022-12-18T07:50:53;25.42;;;10.75;;
68256;SDS011;55069;51.568;4.656;2022-12-18T07:53:18;30.23;;;10.20;;
68256;SDS011;55069;51.568;4.656;2022-12-18T07:55:44;21.93;;;10.30;;
68256;SDS011;55069;51.568;4.656;2022-12-18T07:58:09;25.52;;;11.50;;
68256;SDS011;55069;51.568;4.656;2022-12-18T08:00:35;23.40;;;10.87;;
68256;SDS011;55069;51.568;4.656;2022-12-18T08:03:00;25.70;;;11.70;;
68256;SDS011;55069;51.568;4.656;2022-12-18T08:05:27;24.55;;;10.95;;
68256;SDS011;55069;51.568;4.656;2022-12-18T08:07:52;27.43;;;11.20;;
68256;SDS011;55069;51.568;4.656;2022-12-18T08:10:18;24.92;;;11.13;;
68256;SDS011;55069;51.568;4.656;2022-12-18T08:12:45;23.80;;;10.68;;
68256;SDS011;55069;51.568;4.656;2022-12-18T08:15:10;30.80;;;11.13;;
68256;SDS011;55069;51.568;4.656;2022-12-18T08:17:36;28.05;;;10.07;;
68256;SDS011;55069;51.568;4.656;2022-12-18T08:20:02;24.05;;;11.73;;
68256;SDS011;55069;51.568;4.656;2022-12-18T08:22:28;26.80;;;10.63;;
68256;SDS011;55069;51.568;4.656;2022-12-18T08:24:53;24.23;;;11.25;;
68256;SDS011;55069;51.568;4.656;2022-12-18T08:27:19;21.40;;;10.37;;
68256;SDS011;55069;51.568;4.656;2022-12-18T08:29:44;22.13;;;10.33;;
68256;SDS011;55069;51.568;4.656;2022-12-18T08:32:10;22.97;;;11.10;;
68256;SDS011;55069;51.568;4.656;2022-12-18T08:34:35;22.88;;;10.32;;
68256;SDS011;55069;51.568;4.656;2022-12-18T08:37:01;20.03;;;9.37;;
68256;SDS011;55069;51.568;4.656;2022-12-18T08:39:26;24.20;;;10.97;;
68256;SDS011;55069;51.568;4.656;2022-12-18T08:41:52;22.53;;;10.27;;
68256;SDS011;55069;51.568;4.656;2022-12-18T08:44:35;24.63;;;10.85;;
68256;SDS011;55069;51.568;4.656;2022-12-18T08:47:07;22.50;;;10.18;;
68256;SDS011;55069;51.568;4.656;2022-12-18T08:49:33;20.43;;;10.17;;
68256;SDS011;55069;51.568;4.656;2022-12-18T08:51:59;25.48;;;9.85;;
68256;SDS011;55069;51.568;4.656;2022-12-18T08:54:24;23.70;;;9.82;;
68256;SDS011;55069;51.568;4.656;2022-12-18T08:56:50;21.13;;;10.82;;
68256;SDS011;55069;51.568;4.656;2022-12-18T08:59:16;24.07;;;10.53;;
68256;SDS011;55069;51.568;4.656;2022-12-18T09:01:42;19.75;;;9.48;;
68256;SDS011;55069;51.568;4.656;2022-12-18T09:04:11;23.35;;;10.00;;
68256;SDS011;55069;51.568;4.656;2022-12-18T09:06:37;20.63;;;9.60;;
68256;SDS011;55069;51.568;4.656;2022-12-18T09:09:03;20.15;;;10.23;;
68256;SDS011;55069;51.568;4.656;2022-12-18T09:11:30;21.60;;;10.48;;
68256;SDS011;55069;51.568;4.656;2022-12-18T09:13:57;22.37;;;9.57;;
68256;SDS011;55069;51.568;4.656;2022-12-18T09:16:24;21.00;;;10.75;;
68256;SDS011;55069;51.568;4.656;2022-12-18T09:18:50;22.85;;;10.50;;
68256;SDS011;55069;51.568;4.656;2022-12-18T09:21:20;22.63;;;10.20;;
68256;SDS011;55069;51.568;4.656;2022-12-18T09:23:49;23.55;;;10.35;;
68256;SDS011;55069;51.568;4.656;2022-12-18T09:26:16;19.30;;;9.63;;
68256;SDS011;55069;51.568;4.656;2022-12-18T09:28:41;19.30;;;10.00;;
68256;SDS011;55069;51.568;4.656;2022-12-18T09:31:07;21.17;;;9.98;;
68256;SDS011;55069;51.568;4.656;2022-12-18T09:33:34;26.92;;;10.43;;
68256;SDS011;55069;51.568;4.656;2022-12-18T09:36:01;29.38;;;11.35;;
68256;SDS011;55069;51.568;4.656;2022-12-18T09:38:28;21.38;;;10.55;;
68256;SDS011;55069;51.568;4.656;2022-12-18T09:40:56;20.73;;;9.90;;
68256;SDS011;55069;51.568;4.656;2022-12-18T09:43:45;21.33;;;10.45;;
68256;SDS011;55069;51.568;4.656;2022-12-18T09:46:17;22.00;;;10.07;;
68256;SDS011;55069;51.568;4.656;2022-12-18T09:48:52;21.70;;;10.48;;
68256;SDS011;55069;51.568;4.656;2022-12-18T09:51:28;22.27;;;10.52;;
68256;SDS011;55069;51.568;4.656;2022-12-18T09:53:59;21.65;;;9.55;;
68256;SDS011;55069;51.568;4.656;2022-12-18T09:56:28;22.47;;;9.93;;
68256;SDS011;55069;51.568;4.656;2022-12-18T09:59:00;19.85;;;9.98;;
68256;SDS011;55069;51.568;4.656;2022-12-18T10:01:28;26.42;;;10.38;;
68256;SDS011;55069;51.568;4.656;2022-12-18T10:03:55;22.97;;;10.67;;
68256;SDS011;55069;51.568;4.656;2022-12-18T10:09:11;21.80;;;10.43;;
68256;SDS011;55069;51.568;4.656;2022-12-18T10:12:07;22.50;;;9.77;;
68256;SDS011;55069;51.568;4.656;2022-12-18T10:15:01;19.73;;;10.13;;
68256;SDS011;55069;51.568;4.656;2022-12-18T10:19:59;20.27;;;10.17;;
68256;SDS011;55069;51.568;4.656;2022-12-18T10:27:47;23.10;;;9.43;;
68256;SDS011;55069;51.568;4.656;2022-12-18T10:30:17;20.40;;;9.90;;
68256;SDS011;55069;51.568;4.656;2022-12-18T10:32:45;19.90;;;10.63;;
68256;SDS011;55069;51.568;4.656;2022-12-18T10:35:24;21.33;;;10.03;;
68256;SDS011;55069;51.568;4.656;2022-12-18T10:38:05;23.23;;;10.95;;
68256;SDS011;55069;51.568;4.656;2022-12-18T10:43:21;23.00;;;11.52;;
68256;SDS011;55069;51.568;4.656;2022-12-18T10:54:03;22.08;;;10.85;;
68256;SDS011;55069;51.568;4.656;2022-12-18T10:56:33;24.27;;;11.60;;
68256;SDS011;55069;51.568;4.656;2022-12-18T10:59:02;23.90;;;11.38;;
68256;SDS011;55069;51.568;4.656;2022-12-18T11:01:48;23.63;;;10.68;;
68256;SDS011;55069;51.568;4.656;2022-12-18T11:04:30;21.88;;;11.45;;
68256;SDS011;55069;51.568;4.656;2022-12-18T11:09:27;21.02;;;10.15;;
68256;SDS011;55069;51.568;4.656;2022-12-18T11:11:55;19.20;;;10.40;;
68256;SDS011;55069;51.568;4.656;2022-12-18T11:16:57;23.58;;;11.82;;
68256;SDS011;55069;51.568;4.656;2022-12-18T11:21:50;22.77;;;12.00;;
68256;SDS011;55069;51.568;4.656;2022-12-18T11:24:24;29.77;;;12.53;;
68256;SDS011;55069;51.568;4.656;2022-12-18T11:27:00;24.67;;;11.82;;
68256;SDS011;55069;51.568;4.656;2022-12-18T11:29:38;23.95;;;12.23;;
68256;SDS011;55069;51.568;4.656;2022-12-18T11:34:39;23.50;;;10.52;;
68256;SDS011;55069;51.568;4.656;2022-12-18T11:37:07;25.40;;;11.88;;
68256;SDS011;55069;51.568;4.656;2022-12-18T11:39:42;24.45;;;12.18;;
68256;SDS011;55069;51.568;4.656;2022-12-18T11:42:16;24.08;;;11.98;;
68256;SDS011;55069;51.568;4.656;2022-12-18T11:50:50;23.60;;;11.37;;
68256;SDS011;55069;51.568;4.656;2022-12-18T11:53:18;22.73;;;11.82;;
68256;SDS011;55069;51.568;4.656;2022-12-18T11:55:56;23.95;;;12.25;;
68256;SDS011;55069;51.568;4.656;2022-12-18T11:58:34;20.37;;;11.07;;
68256;SDS011;55069;51.568;4.656;2022-12-18T12:14:55;25.88;;;12.40;;
68256;SDS011;55069;51.568;4.656;2022-12-18T12:17:37;25.20;;;12.07;;
68256;SDS011;55069;51.568;4.656;2022-12-18T12:20:18;26.00;;;13.85;;
68256;SDS011;55069;51.568;4.656;2022-12-18T12:23:05;23.35;;;12.65;;
68256;SDS011;55069;51.568;4.656;2022-12-18T12:34:12;27.95;;;14.32;;
68256;SDS011;55069;51.568;4.656;2022-12-18T12:39:09;25.20;;;14.45;;
68256;SDS011;55069;51.568;4.656;2022-12-18T12:41:38;23.20;;;12.90;;
68256;SDS011;55069;51.568;4.656;2022-12-18T12:44:32;24.90;;;14.30;;
68256;SDS011;55069;51.568;4.656;2022-12-18T12:47:11;28.17;;;12.98;;
68256;SDS011;55069;51.568;4.656;2022-12-18T12:49:41;24.42;;;13.63;;
68256;SDS011;55069;51.568;4.656;2022-12-18T12:52:32;25.63;;;12.73;;
68256;SDS011;55069;51.568;4.656;2022-12-18T12:55:03;22.98;;;12.18;;
68256;SDS011;55069;51.568;4.656;2022-12-18T12:57:36;22.02;;;12.23;;
68256;SDS011;55069;51.568;4.656;2022-12-18T13:00:11;22.40;;;13.18;;
68256;SDS011;55069;51.568;4.656;2022-12-18T13:08:12;22.50;;;12.63;;
68256;SDS011;55069;51.568;4.656;2022-12-18T13:10:51;27.13;;;12.30;;
68256;SDS011;55069;51.568;4.656;2022-12-18T13:13:50;26.45;;;11.88;;
68256;SDS011;55069;51.568;4.656;2022-12-18T13:16:21;22.08;;;11.20;;
68256;SDS011;55069;51.568;4.656;2022-12-18T13:18:52;25.93;;;12.30;;
68256;SDS011;55069;51.568;4.656;2022-12-18T13:21:27;26.15;;;12.85;;
68256;SDS011;55069;51.568;4.656;2022-12-18T13:23:54;25.77;;;12.85;;
68256;SDS011;55069;51.568;4.656;2022-12-18T13:28:53;25.38;;;12.75;;
68256;SDS011;55069;51.568;4.656;2022-12-18T13:34:36;23.08;;;12.43;;
68256;SDS011;55069;51.568;4.656;2022-12-18T13:40:20;26.27;;;12.00;;
68256;SDS011;55069;51.568;4.656;2022-12-18T13:48:20;24.38;;;12.52;;
68256;SDS011;55069;51.568;4.656;2022-12-18T13:50:48;24.85;;;12.43;;
68256;SDS011;55069;51.568;4.656;2022-12-18T13:53:21;27.42;;;13.65;;
68256;SDS011;55069;51.568;4.656;2022-12-18T13:55:49;26.75;;;12.45;;
68256;SDS011;55069;51.568;4.656;2022-12-18T13:58:15;25.40;;;12.90;;
68256;SDS011;55069;51.568;4.656;2022-12-18T14:00:42;24.07;;;12.13;;
68256;SDS011;55069;51.568;4.656;2022-12-18T14:03:16;28.27;;;13.45;;
68256;SDS011;55069;51.568;4.656;2022-12-18T14:05:44;25.00;;;12.10;;
68256;SDS011;55069;51.568;4.656;2022-12-18T14:08:12;26.43;;;12.43;;
68256;SDS011;55069;51.568;4.656;2022-12-18T14:10:40;29.63;;;14.10;;
68256;SDS011;55069;51.568;4.656;2022-12-18T14:13:08;24.50;;;12.98;;
68256;SDS011;55069;51.568;4.656;2022-12-18T14:15:40;25.77;;;12.80;;
68256;SDS011;55069;51.568;4.656;2022-12-18T14:18:53;27.23;;;13.15;;
68256;SDS011;55069;51.568;4.656;2022-12-18T14:20:59;23.08;;;12.20;;
68256;SDS011;55069;51.568;4.656;2022-12-18T14:29:23;24.40;;;13.05;;
68256;SDS011;55069;51.568;4.656;2022-12-18T14:34:34;25.13;;;11.80;;
68256;SDS011;55069;51.568;4.656;2022-12-18T14:37:00;24.10;;;13.07;;
68256;SDS011;55069;51.568;4.656;2022-12-18T14:39:25;22.10;;;12.17;;
68256;SDS011;55069;51.568;4.656;2022-12-18T14:41:51;26.87;;;12.73;;
68256;SDS011;55069;51.568;4.656;2022-12-18T14:44:17;30.08;;;12.93;;
68256;SDS011;55069;51.568;4.656;2022-12-18T14:46:46;29.20;;;13.57;;
68256;SDS011;55069;51.568;4.656;2022-12-18T14:52:06;25.60;;;12.27;;
68256;SDS011;55069;51.568;4.656;2022-12-18T14:54:45;26.02;;;13.30;;
68256;SDS011;55069;51.568;4.656;2022-12-18T14:59:48;26.50;;;12.87;;
68256;SDS011;55069;51.568;4.656;2022-12-18T15:04:46;25.65;;;13.02;;
68256;SDS011;55069;51.568;4.656;2022-12-18T15:12:44;28.75;;;13.93;;
68256;SDS011;55069;51.568;4.656;2022-12-18T15:17:59;26.02;;;12.88;;
68256;SDS011;55069;51.568;4.656;2022-12-18T15:20:25;26.17;;;14.43;;
68256;SDS011;55069;51.568;4.656;2022-12-18T15:22:50;30.57;;;15.17;;
68256;SDS011;55069;51.568;4.656;2022-12-18T15:25:32;31.38;;;15.30;;
68256;SDS011;55069;51.568;4.656;2022-12-18T15:28:14;28.40;;;15.13;;
68256;SDS011;55069;51.568;4.656;2022-12-18T15:30:57;25.25;;;13.85;;
68256;SDS011;55069;51.568;4.656;2022-12-18T15:36:18;28.77;;;14.80;;
68256;SDS011;55069;51.568;4.656;2022-12-18T15:38:49;26.88;;;13.50;;
68256;SDS011;55069;51.568;4.656;2022-12-18T15:41:17;32.00;;;15.45;;
68256;SDS011;55069;51.568;4.656;2022-12-18T15:43:44;31.37;;;14.90;;
68256;SDS011;55069;51.568;4.656;2022-12-18T15:46:12;29.13;;;15.38;;
68256;SDS011;55069;51.568;4.656;2022-12-18T15:48:40;26.00;;;13.07;;
68256;SDS011;55069;51.568;4.656;2022-12-18T15:51:10;28.52;;;15.25;;
68256;SDS011;55069;51.568;4.656;2022-12-18T15:53:42;32.10;;;15.50;;
68256;SDS011;55069;51.568;4.656;2022-12-18T15:56:10;30.85;;;16.10;;
68256;SDS011;55069;51.568;4.656;2022-12-18T15:58:55;31.90;;;14.60;;
68256;SDS011;55069;51.568;4.656;2022-12-18T16:01:22;30.03;;;14.57;;
68256;SDS011;55069;51.568;4.656;2022-12-18T16:03:50;30.65;;;16.30;;
68256;SDS011;55069;51.568;4.656;2022-12-18T16:06:16;25.83;;;13.50;;
68256;SDS011;55069;51.568;4.656;2022-12-18T16:08:41;29.15;;;15.10;;
68256;SDS011;55069;51.568;4.656;2022-12-18T16:11:11;27.50;;;15.13;;
68256;SDS011;55069;51.568;4.656;2022-12-18T16:13:42;33.00;;;15.77;;
68256;SDS011;55069;51.568;4.656;2022-12-18T16:16:08;29.50;;;14.50;;
68256;SDS011;55069;51.568;4.656;2022-12-18T16:18:33;31.87;;;14.77;;
68256;SDS011;55069;51.568;4.656;2022-12-18T16:20:59;30.10;;;14.83;;
68256;SDS011;55069;51.568;4.656;2022-12-18T16:23:24;28.43;;;15.20;;
68256;SDS011;55069;51.568;4.656;2022-12-18T16:25:52;32.75;;;15.95;;
68256;SDS011;55069;51.568;4.656;2022-12-18T16:28:17;32.67;;;15.45;;
68256;SDS011;55069;51.568;4.656;2022-12-18T16:30:43;27.23;;;13.93;;
68256;SDS011;55069;51.568;4.656;2022-12-18T16:33:09;34.17;;;16.27;;
68256;SDS011;55069;51.568;4.656;2022-12-18T16:35:36;33.15;;;15.98;;
68256;SDS011;55069;51.568;4.656;2022-12-18T16:38:02;31.48;;;15.73;;
68256;SDS011;55069;51.568;4.656;2022-12-18T16:40:27;31.50;;;16.00;;
68256;SDS011;55069;51.568;4.656;2022-12-18T16:42:56;35.10;;;16.05;;
68256;SDS011;55069;51.568;4.656;2022-12-18T16:45:22;30.03;;;15.67;;
68256;SDS011;55069;51.568;4.656;2022-12-18T16:47:48;32.33;;;15.60;;
68256;SDS011;55069;51.568;4.656;2022-12-18T16:50:14;31.95;;;15.93;;
68256;SDS011;55069;51.568;4.656;2022-12-18T16:52:39;31.57;;;15.03;;
68256;SDS011;55069;51.568;4.656;2022-12-18T16:55:05;30.30;;;16.50;;
68256;SDS011;55069;51.568;4.656;2022-12-18T16:57:31;30.02;;;15.98;;